Portada
METAR-TAF:

METAR-TAF

Aeroports :

Parauapebas, Pará, Brasil

latitud: 06-07S, longitud: 050-00W, altitud: 621 m

Observació

L'informe es va fer fa 1 hora i 28 minuts, a les 23:00 UTC
Vent calma
Temperatura 21°C
Humitat 78%
Pressió 1014 hPa
Visibilitat 10 km o més
sense núvols per sota de 1500 mi sense presència de cumulonimbus.

METAR: SBCJ 122300Z 00000KT CAVOK 21/17 Q1014

Hora: 21:28 (00:28 UTC)

Pronòstic

L'informe es va fer fa 3 hores i 28 minuts, a les 21:00 UTC
Pronòstic vàlid del 13 a les 00 UTC al 13 a les 12 UTC
Vent kt del Nord
Visibilitat 10 km o més
sense núvols per sota de 1500 mi sense presència de cumulonimbus.
Evolucionant progressivament
l' 13 a les 09 UTC al 13 a les 11 UTC
Vent 5 kt del Est/Nord-Est

TAF: SBCJ 122100Z 1300/1312 00000KT CAVOK TN18/1309Z TX24/1311Z BECMG 1309/1311 06005KT RMK PDL

Observacions i pronòstics meteorològics de més de 4000 aeroports (METAR i TAF).

Les estacions disponibles són els punts grocs i vermells al mapa.

Posi el ratolí al punt desitjat per veure el nom de l'estació.

Feu clic per veure les observacions i els pronòstics meteorològics.

Per canviar el mapa: feu clic els botons verds amb una creu de color negre per apropar; al botó verd amb un guió per allunyar la imatge; o en les fletxes verdes per a mapes adjacents.


METAR-TAF: